McFarland, California
Current Conditions -  °F | °C
As of 4:54 PM on Monday 20 Oct 2014 (Local Time) from KBFL Reporting Station
Clear Clear  
Wind Chill: 79°   Ceiling: Unl
Heat Index: 79°   Visibility: 10mi
Dew Point: 50°   Wind: 6mph
Humidity: 36%   Direction: 290°WNW
Pressure: 29.87"   Gusts: NA
Location:  35.68°N, 119.22°W
Report Text: KBFL 202354Z 29005KT 10SM CLR 26/10 A2987 RMK AO2 SLP110 T02610100 10267 20206 56008
Loading
Personal Weather Stations






























Interactive Weather Map
Tropical Storm Tracking
New forecast layout! Learn more

10-Day Weather Forecast

Advertisements
Track Severe Weather on mobile